createdAt,value
2022-08-17T00:00:43.878Z,1012.03
2022-08-17T00:01:27.694Z,1012.04
2022-08-17T00:02:27.248Z,1012.03
2022-08-17T00:03:26.978Z,1012.04
2022-08-17T00:04:27.084Z,1012.02
2022-08-17T00:05:27.248Z,1012.02
2022-08-17T00:06:27.527Z,1012.01
2022-08-17T00:07:27.610Z,1012.03
2022-08-17T00:08:27.756Z,1012.00
2022-08-17T00:09:28.010Z,1011.99
2022-08-17T00:10:28.105Z,1012.02
2022-08-17T00:11:28.267Z,1012.03
2022-08-17T00:12:41.997Z,1012.04
2022-08-17T00:13:29.640Z,1012.05
2022-08-17T00:14:28.777Z,1012.05
2022-08-17T00:15:28.958Z,1012.04
2022-08-17T00:16:56.497Z,1012.05
2022-08-17T00:17:30.297Z,1012.11
2022-08-17T00:19:02.169Z,1012.13
2022-08-17T00:19:30.749Z,1012.13
2022-08-17T00:20:33.427Z,1012.15
2022-08-17T00:22:29.884Z,1012.13
2022-08-17T00:22:36.087Z,1012.16
2022-08-17T00:23:31.387Z,1012.16
2022-08-17T00:24:30.648Z,1012.18
2022-08-17T00:25:30.750Z,1012.23
2022-08-17T00:26:44.160Z,1012.21
2022-08-17T00:27:32.175Z,1012.16
2022-08-17T00:28:31.258Z,1012.23
2022-08-17T00:29:31.439Z,1012.24
2022-08-17T00:30:31.640Z,1012.22
2022-08-17T00:31:32.821Z,1012.22
2022-08-17T00:33:12.041Z,1012.22
2022-08-17T00:33:33.188Z,1012.22
2022-08-17T00:34:32.319Z,1012.23
2022-08-17T00:35:32.471Z,1012.23
2022-08-17T00:36:32.669Z,1012.31
2022-08-17T00:37:32.858Z,1012.22
2022-08-17T00:38:32.969Z,1012.24
2022-08-17T00:39:33.204Z,1012.21
2022-08-17T00:40:40.647Z,1012.22
2022-08-17T00:41:34.528Z,1012.23
2022-08-17T00:42:33.758Z,1012.22
2022-08-17T00:43:33.870Z,1012.29
2022-08-17T00:44:34.030Z,1012.24
2022-08-17T00:45:34.302Z,1012.22
2022-08-17T00:46:34.421Z,1012.25
2022-08-17T00:47:34.580Z,1012.22
2022-08-17T00:48:34.833Z,1012.22
2022-08-17T00:49:34.909Z,1012.24
2022-08-17T00:50:35.063Z,1012.21
2022-08-17T00:51:35.389Z,1012.20
2022-08-17T00:52:35.435Z,1012.25
2022-08-17T00:53:35.591Z,1012.21
2022-08-17T00:54:41.917Z,1012.19
2022-08-17T00:55:36.953Z,1012.24
2022-08-17T00:56:36.090Z,1012.25
2022-08-17T00:57:36.281Z,1012.20
2022-08-17T00:58:36.860Z,1012.24
2022-08-17T00:59:36.620Z,1012.22
2022-08-17T01:00:36.777Z,1012.26
2022-08-17T01:01:37.102Z,1012.22
2022-08-17T01:02:42.559Z,1012.27
2022-08-17T01:03:38.330Z,1012.26
2022-08-17T01:04:37.603Z,1012.26
2022-08-17T01:05:37.679Z,1012.26
2022-08-17T01:06:37.842Z,1012.26
2022-08-17T01:07:38.185Z,1012.25
2022-08-17T01:08:38.156Z,1012.27
2022-08-17T01:09:38.320Z,1012.26
2022-08-17T01:10:58.417Z,1012.25
2022-08-17T01:11:39.702Z,1012.24
2022-08-17T01:12:38.835Z,1012.20
2022-08-17T01:13:41.069Z,1012.25
2022-08-17T01:14:39.203Z,1012.27
2022-08-17T01:15:39.351Z,1012.25
2022-08-17T01:16:39.533Z,1012.27
2022-08-17T01:17:39.750Z,1012.30
2022-08-17T01:18:39.862Z,1012.28
2022-08-17T01:19:40.023Z,1012.26
2022-08-17T01:20:43.049Z,1012.26
2022-08-17T01:21:41.378Z,1012.25
2022-08-17T01:22:40.515Z,1012.28
2022-08-17T01:23:40.763Z,1012.27
2022-08-17T01:24:40.830Z,1012.27
2022-08-17T01:25:40.993Z,1012.26
2022-08-17T01:26:41.275Z,1012.24
2022-08-17T01:27:41.334Z,1012.24
2022-08-17T01:28:54.651Z,1012.29
2022-08-17T01:29:42.744Z,1012.30
2022-08-17T01:30:57.142Z,1012.28
2022-08-17T01:31:43.025Z,1012.29
2022-08-17T01:32:42.241Z,1012.27
2022-08-17T01:33:42.327Z,1012.27
2022-08-17T01:34:46.784Z,1012.28
2022-08-17T01:35:43.674Z,1012.28
2022-08-17T01:36:42.953Z,1012.29
2022-08-17T01:37:43.025Z,1012.30
2022-08-17T01:38:43.188Z,1012.35
2022-08-17T01:39:43.483Z,1012.34
2022-08-17T01:40:43.515Z,1012.38
2022-08-17T01:41:43.694Z,1012.38
2022-08-17T01:42:43.937Z,1012.41
2022-08-17T01:43:44.016Z,1012.39
2022-08-17T01:44:44.175Z,1012.38
2022-08-17T01:45:44.428Z,1012.39
2022-08-17T01:46:44.520Z,1012.39
2022-08-17T01:47:44.675Z,1012.40
2022-08-17T01:48:44.845Z,1012.40
2022-08-17T01:49:45.036Z,1012.42
2022-08-17T01:50:45.186Z,1012.37
2022-08-17T01:51:45.407Z,1012.40
2022-08-17T01:52:45.583Z,1012.39
2022-08-17T01:53:45.698Z,1012.38
2022-08-17T01:54:45.856Z,1012.37
2022-08-17T01:55:46.085Z,1012.37
2022-08-17T01:56:47.199Z,1012.34
2022-08-17T01:57:46.376Z,1012.36
2022-08-17T01:58:46.619Z,1012.35
2022-08-17T01:59:46.729Z,1012.36
2022-08-17T02:01:00.987Z,1012.40
2022-08-17T02:01:48.250Z,1012.39
2022-08-17T02:02:47.239Z,1012.36
2022-08-17T02:03:53.456Z,1012.38
2022-08-17T02:04:48.653Z,1012.36
2022-08-17T02:05:47.784Z,1012.37
2022-08-17T02:06:53.090Z,1012.38
2022-08-17T02:08:00.210Z,1012.41
2022-08-17T02:09:01.787Z,1012.38
2022-08-17T02:09:49.457Z,1012.38
2022-08-17T02:10:48.626Z,1012.38
2022-08-17T02:11:48.855Z,1012.39
2022-08-17T02:12:49.066Z,1012.37
2022-08-17T02:13:49.141Z,1012.37
2022-08-17T02:14:50.404Z,1012.37
2022-08-17T02:15:49.488Z,1012.37
2022-08-17T02:16:49.671Z,1012.39
2022-08-17T02:17:49.910Z,1012.38
2022-08-17T02:18:51.010Z,1012.40
2022-08-17T02:19:50.196Z,1012.40
2022-08-17T02:20:50.358Z,1012.41
2022-08-17T02:21:50.529Z,1012.40
2022-08-17T02:22:50.867Z,1012.37
2022-08-17T02:23:50.941Z,1012.38
2022-08-17T02:24:59.780Z,1012.34
2022-08-17T02:25:52.229Z,1012.34
2022-08-17T02:26:51.539Z,1012.35
2022-08-17T02:27:51.596Z,1012.35
2022-08-17T02:28:51.749Z,1012.36
2022-08-17T02:29:52.000Z,1012.33
2022-08-17T02:31:01.021Z,1012.36
2022-08-17T02:31:53.310Z,1012.33
2022-08-17T02:32:52.470Z,1012.33
2022-08-17T02:33:56.610Z,1012.35
2022-08-17T02:34:53.820Z,1012.35
2022-08-17T02:35:53.010Z,1012.32
2022-08-17T02:36:53.283Z,1012.35
2022-08-17T02:37:55.456Z,1012.30
2022-08-17T02:38:53.540Z,1012.30
2022-08-17T02:39:53.841Z,1012.32
2022-08-17T02:40:53.881Z,1012.34
2022-08-17T02:41:54.052Z,1012.33
2022-08-17T02:42:54.304Z,1012.35
2022-08-17T02:43:54.396Z,1012.30
2022-08-17T02:44:54.542Z,1012.27
2022-08-17T02:45:54.786Z,1012.28
2022-08-17T02:46:54.952Z,1012.31
2022-08-17T02:47:55.062Z,1012.35
2022-08-17T02:48:55.252Z,1012.32
2022-08-17T02:49:55.881Z,1012.30
2022-08-17T02:50:55.657Z,1012.27
2022-08-17T02:51:55.834Z,1012.31
2022-08-17T02:53:02.605Z,1012.28
2022-08-17T02:54:35.718Z,1012.27
2022-08-17T02:54:57.359Z,1012.25
2022-08-17T02:55:56.490Z,1012.25
2022-08-17T02:56:56.662Z,1012.27
2022-08-17T02:57:56.900Z,1012.23
2022-08-17T02:58:57.003Z,1012.23
2022-08-17T02:59:57.164Z,1012.26
2022-08-17T03:00:57.416Z,1012.20
2022-08-17T03:01:57.544Z,1012.24
2022-08-17T03:02:57.662Z,1012.27
2022-08-17T03:03:57.904Z,1012.29
2022-08-17T03:04:58.015Z,1012.25
2022-08-17T03:05:58.174Z,1012.25
2022-08-17T03:06:58.455Z,1012.26
2022-08-17T03:07:58.510Z,1012.27
2022-08-17T03:08:58.663Z,1012.28
2022-08-17T03:09:58.881Z,1012.26
2022-08-17T03:10:59.048Z,1012.27
2022-08-17T03:11:59.224Z,1012.27
2022-08-17T03:12:59.379Z,1012.30
2022-08-17T03:13:59.571Z,1012.29
2022-08-17T03:14:59.685Z,1012.30
2022-08-17T03:15:59.851Z,1012.29
2022-08-17T03:17:00.116Z,1012.29
2022-08-17T03:18:00.194Z,1012.32
2022-08-17T03:19:00.356Z,1012.30
2022-08-17T03:20:00.597Z,1012.32
2022-08-17T03:21:00.684Z,1012.30
2022-08-17T03:22:00.835Z,1012.29
2022-08-17T03:23:03.111Z,1012.26
2022-08-17T03:24:01.218Z,1012.24
2022-08-17T03:25:02.396Z,1012.23
2022-08-17T03:26:01.653Z,1012.22
2022-08-17T03:27:01.766Z,1012.22
2022-08-17T03:28:01.924Z,1012.22
2022-08-17T03:29:02.126Z,1012.20
2022-08-17T03:30:02.320Z,1012.20
2022-08-17T03:31:02.443Z,1012.23
2022-08-17T03:32:02.587Z,1012.23
2022-08-17T03:33:02.838Z,1012.25
2022-08-17T03:34:02.931Z,1012.29
2022-08-17T03:35:03.108Z,1012.30
2022-08-17T03:36:03.295Z,1012.32
2022-08-17T03:37:03.476Z,1012.29
2022-08-17T03:38:03.656Z,1012.32
2022-08-17T03:39:03.835Z,1012.33
2022-08-17T03:40:04.154Z,1012.27
2022-08-17T03:41:04.216Z,1012.28
2022-08-17T03:42:04.357Z,1012.26
2022-08-17T03:43:04.632Z,1012.27
2022-08-17T03:44:04.717Z,1012.25
2022-08-17T03:45:04.907Z,1012.29
2022-08-17T03:46:05.190Z,1012.28
2022-08-17T03:47:05.261Z,1012.31
2022-08-17T03:48:05.425Z,1012.31
2022-08-17T03:49:05.595Z,1012.31
2022-08-17T03:50:10.342Z,1012.30
2022-08-17T03:51:05.916Z,1012.32
2022-08-17T03:52:06.075Z,1012.30
2022-08-17T03:53:06.270Z,1012.30
2022-08-17T03:54:06.400Z,1012.35
2022-08-17T03:55:06.589Z,1012.34
2022-08-17T03:56:06.788Z,1012.33
2022-08-17T03:57:06.918Z,1012.35
2022-08-17T03:58:07.099Z,1012.34
2022-08-17T03:59:07.352Z,1012.33
2022-08-17T04:00:08.449Z,1012.33
2022-08-17T04:01:07.686Z,1012.36
2022-08-17T04:02:07.878Z,1012.35
2022-08-17T04:03:07.987Z,1012.36
2022-08-17T04:04:08.149Z,1012.38
2022-08-17T04:05:08.388Z,1012.33
2022-08-17T04:06:08.518Z,1012.32
2022-08-17T04:07:08.648Z,1012.34
2022-08-17T04:08:08.868Z,1012.29
2022-08-17T04:09:09.075Z,1012.28
2022-08-17T04:10:09.178Z,1012.30
2022-08-17T04:11:09.380Z,1012.28
2022-08-17T04:12:09.601Z,1012.31
2022-08-17T04:13:09.689Z,1012.30
2022-08-17T04:14:09.878Z,1012.34
2022-08-17T04:15:10.141Z,1012.33
2022-08-17T04:16:10.222Z,1012.36
2022-08-17T04:17:10.401Z,1012.33
2022-08-17T04:18:10.892Z,1012.36
2022-08-17T04:19:10.760Z,1012.33
2022-08-17T04:20:10.918Z,1012.34
2022-08-17T04:21:11.201Z,1012.34
2022-08-17T04:22:11.279Z,1012.36
2022-08-17T04:23:12.450Z,1012.35
2022-08-17T04:24:11.675Z,1012.32
2022-08-17T04:25:11.823Z,1012.34
2022-08-17T04:26:12.010Z,1012.34
2022-08-17T04:27:13.145Z,1012.33
2022-08-17T04:28:16.038Z,1012.36
2022-08-17T04:29:12.474Z,1012.35
2022-08-17T04:30:12.666Z,1012.35
2022-08-17T04:31:12.943Z,1012.36
2022-08-17T04:32:13.002Z,1012.37
2022-08-17T04:33:13.424Z,1012.36
2022-08-17T04:34:13.431Z,1012.41
2022-08-17T04:35:13.542Z,1012.42
2022-08-17T04:36:13.692Z,1012.41
2022-08-17T04:37:13.963Z,1012.41
2022-08-17T04:38:14.065Z,1012.44
2022-08-17T04:39:14.243Z,1012.43
2022-08-17T04:40:14.523Z,1012.45
2022-08-17T04:41:14.663Z,1012.46
2022-08-17T04:42:14.782Z,1012.45
2022-08-17T04:43:14.988Z,1012.48
2022-08-17T04:44:15.179Z,1012.46
2022-08-17T04:45:16.292Z,1012.45
2022-08-17T04:46:15.493Z,1012.47
2022-08-17T04:47:15.721Z,1012.51
2022-08-17T04:48:15.810Z,1012.45
2022-08-17T04:49:15.991Z,1012.45
2022-08-17T04:50:16.256Z,1012.51
2022-08-17T04:51:16.368Z,1012.51
2022-08-17T04:52:32.226Z,1012.52
2022-08-17T04:53:17.795Z,1012.52
2022-08-17T04:54:16.909Z,1012.53
2022-08-17T04:55:17.055Z,1012.56
2022-08-17T04:56:19.041Z,1012.58
2022-08-17T04:57:17.421Z,1012.60
2022-08-17T04:58:17.667Z,1012.64
2022-08-17T04:59:17.801Z,1012.66
2022-08-17T05:00:17.961Z,1012.69
2022-08-17T05:01:23.449Z,1012.69
2022-08-17T05:02:19.340Z,1012.73
2022-08-17T05:03:18.453Z,1012.74
2022-08-17T05:04:33.220Z,1012.70
2022-08-17T05:05:19.938Z,1012.74
2022-08-17T05:06:18.974Z,1012.72
2022-08-17T05:07:23.465Z,1012.75
2022-08-17T05:08:20.406Z,1012.75
2022-08-17T05:09:19.505Z,1012.77
2022-08-17T05:10:19.686Z,1012.75
2022-08-17T05:11:20.016Z,1012.75
2022-08-17T05:12:20.026Z,1012.75
2022-08-17T05:13:20.213Z,1012.74
2022-08-17T05:14:20.467Z,1012.77
2022-08-17T05:15:20.582Z,1012.75
2022-08-17T05:16:20.770Z,1012.76
2022-08-17T05:17:20.978Z,1012.77
2022-08-17T05:18:21.114Z,1012.80
2022-08-17T05:19:21.257Z,1012.86
2022-08-17T05:20:21.484Z,1012.84
2022-08-17T05:21:21.672Z,1012.87
2022-08-17T05:22:21.787Z,1012.83
2022-08-17T05:23:22.021Z,1012.79
2022-08-17T05:24:39.043Z,1012.79
2022-08-17T05:25:25.513Z,1012.81
2022-08-17T05:26:26.143Z,1012.80
2022-08-17T05:27:22.657Z,1012.80
2022-08-17T05:28:26.565Z,1012.79
2022-08-17T05:29:23.090Z,1012.77
2022-08-17T05:30:24.205Z,1012.79
2022-08-17T05:31:23.338Z,1012.75
2022-08-17T05:32:37.822Z,1012.75
2022-08-17T05:33:24.673Z,1012.73
2022-08-17T05:34:23.840Z,1012.75
2022-08-17T05:35:24.125Z,1012.74
2022-08-17T05:36:42.154Z,1012.79
2022-08-17T05:37:25.368Z,1012.79
2022-08-17T05:38:24.581Z,1012.78
2022-08-17T05:39:24.819Z,1012.78
2022-08-17T05:40:24.888Z,1012.79
2022-08-17T05:41:25.052Z,1012.80
2022-08-17T05:42:25.274Z,1012.77
2022-08-17T05:43:25.381Z,1012.71
2022-08-17T05:44:25.539Z,1012.75
2022-08-17T05:45:54.504Z,1012.77
2022-08-17T05:46:26.903Z,1012.73
2022-08-17T05:47:26.081Z,1012.73
2022-08-17T05:48:35.506Z,1012.70
2022-08-17T05:49:27.443Z,1012.73
2022-08-17T05:50:27.103Z,1012.71
2022-08-17T05:51:26.883Z,1012.72
2022-08-17T05:52:26.965Z,1012.73
2022-08-17T05:53:27.142Z,1012.76
2022-08-17T05:54:27.296Z,1012.71
2022-08-17T05:55:27.526Z,1012.73
2022-08-17T05:56:29.981Z,1012.76
2022-08-17T05:57:27.832Z,1012.72
2022-08-17T05:58:28.006Z,1012.72
2022-08-17T05:59:28.153Z,1012.74
2022-08-17T06:00:30.597Z,1012.72
2022-08-17T06:01:28.660Z,1012.71
2022-08-17T06:02:28.674Z,1012.75
2022-08-17T06:03:28.865Z,1012.72
2022-08-17T06:04:29.105Z,1012.73
2022-08-17T06:05:29.222Z,1012.73
2022-08-17T06:06:31.575Z,1012.74
2022-08-17T06:07:29.618Z,1012.71
2022-08-17T06:08:29.716Z,1012.72
2022-08-17T06:09:33.637Z,1012.73
2022-08-17T06:10:30.190Z,1012.75
2022-08-17T06:11:31.234Z,1012.78
2022-08-17T06:12:31.371Z,1012.75
2022-08-17T06:13:30.639Z,1012.80
2022-08-17T06:14:30.827Z,1012.82
2022-08-17T06:15:30.984Z,1012.89
2022-08-17T06:16:34.435Z,1012.87
2022-08-17T06:17:31.373Z,1012.83
2022-08-17T06:18:31.467Z,1012.85
2022-08-17T06:19:31.647Z,1012.83
2022-08-17T06:20:31.939Z,1012.82
2022-08-17T06:21:32.277Z,1012.80
2022-08-17T06:22:32.177Z,1012.81
2022-08-17T06:23:32.445Z,1012.84
2022-08-17T06:24:32.519Z,1012.84
2022-08-17T06:25:32.698Z,1012.83
2022-08-17T06:26:38.304Z,1012.85
2022-08-17T06:27:34.044Z,1012.90
2022-08-17T06:28:33.208Z,1012.90
2022-08-17T06:29:33.426Z,1012.86
2022-08-17T06:30:59.174Z,1012.87
2022-08-17T06:31:34.729Z,1012.85
2022-08-17T06:32:33.946Z,1012.83
2022-08-17T06:33:34.424Z,1012.83
2022-08-17T06:34:34.600Z,1012.86
2022-08-17T06:35:34.409Z,1012.84
2022-08-17T06:36:34.661Z,1012.85
2022-08-17T06:37:34.770Z,1012.82
2022-08-17T06:38:37.046Z,1012.83
2022-08-17T06:39:35.230Z,1012.77
2022-08-17T06:40:35.332Z,1012.85
2022-08-17T06:41:37.900Z,1012.84
2022-08-17T06:42:54.758Z,1012.83
2022-08-17T06:43:36.844Z,1012.81
2022-08-17T06:44:50.194Z,1012.76
2022-08-17T06:45:37.279Z,1012.76
2022-08-17T06:46:36.400Z,1012.85
2022-08-17T06:47:36.524Z,1012.83
2022-08-17T06:48:36.756Z,1012.80
2022-08-17T06:49:36.967Z,1012.79
2022-08-17T06:50:37.044Z,1012.85
2022-08-17T06:51:37.233Z,1012.83
2022-08-17T06:52:46.185Z,1012.85
2022-08-17T06:53:38.593Z,1012.91
2022-08-17T06:54:37.799Z,1012.80
2022-08-17T06:55:38.434Z,1012.89
2022-08-17T06:56:53.807Z,1012.88
2022-08-17T06:57:39.332Z,1012.89
2022-08-17T06:58:40.102Z,1012.90
2022-08-17T06:59:54.681Z,1012.88
2022-08-17T07:00:39.875Z,1012.91
2022-08-17T07:01:39.128Z,1012.88
2022-08-17T07:02:52.658Z,1012.89
2022-08-17T07:03:40.346Z,1012.85
2022-08-17T07:04:39.630Z,1012.84
2022-08-17T07:05:39.727Z,1012.88
2022-08-17T07:06:39.899Z,1012.90
2022-08-17T07:07:40.069Z,1012.88
2022-08-17T07:08:40.291Z,1012.93
2022-08-17T07:09:40.427Z,1012.88
2022-08-17T07:10:40.595Z,1012.88
2022-08-17T07:11:40.818Z,1012.82
2022-08-17T07:12:40.908Z,1012.85
2022-08-17T07:13:41.085Z,1012.84
2022-08-17T07:14:41.327Z,1012.79
2022-08-17T07:15:41.437Z,1012.83
2022-08-17T07:16:41.629Z,1012.80
2022-08-17T07:17:47.983Z,1012.83
2022-08-17T07:18:43.013Z,1012.85
2022-08-17T07:19:42.169Z,1012.87
2022-08-17T07:20:42.418Z,1012.78
2022-08-17T07:21:42.553Z,1012.74
2022-08-17T07:22:57.493Z,1012.77
2022-08-17T07:23:43.870Z,1012.79
2022-08-17T07:24:43.111Z,1012.78
2022-08-17T07:25:43.201Z,1012.76
2022-08-17T07:26:43.425Z,1012.77
2022-08-17T07:27:43.606Z,1012.75
2022-08-17T07:28:43.721Z,1012.78
2022-08-17T07:29:44.005Z,1012.74
2022-08-17T07:30:45.652Z,1012.79
2022-08-17T07:31:44.252Z,1012.74
2022-08-17T07:32:44.511Z,1012.73
2022-08-17T07:33:44.622Z,1012.72
2022-08-17T07:34:44.813Z,1012.74
2022-08-17T07:35:45.076Z,1012.69
2022-08-17T07:36:45.182Z,1012.71
2022-08-17T07:37:45.353Z,1012.72
2022-08-17T07:38:45.623Z,1012.73
2022-08-17T07:40:14.727Z,1012.75
2022-08-17T07:40:46.918Z,1012.75
2022-08-17T07:41:53.232Z,1012.77
2022-08-17T07:42:47.245Z,1012.74
2022-08-17T07:43:46.456Z,1012.70
2022-08-17T07:44:46.596Z,1012.71
2022-08-17T07:45:46.739Z,1012.71
2022-08-17T07:46:46.926Z,1012.69
2022-08-17T07:47:47.107Z,1012.70
2022-08-17T07:48:47.287Z,1012.69
2022-08-17T07:49:47.516Z,1012.73
2022-08-17T07:50:50.545Z,1012.71
2022-08-17T07:51:47.830Z,1012.71
2022-08-17T07:52:51.670Z,1012.70
2022-08-17T07:53:48.202Z,1012.69
2022-08-17T07:54:48.371Z,1012.64
2022-08-17T07:55:48.518Z,1012.63
2022-08-17T07:56:48.716Z,1012.68
2022-08-17T07:57:48.945Z,1012.65
2022-08-17T07:58:49.039Z,1012.66
2022-08-17T07:59:49.249Z,1012.67
2022-08-17T08:00:49.464Z,1012.68
2022-08-17T08:01:49.611Z,1012.68
2022-08-17T08:02:50.730Z,1012.63
2022-08-17T08:03:52.788Z,1012.60
2022-08-17T08:05:00.476Z,1012.62
2022-08-17T08:05:51.270Z,1012.57
2022-08-17T08:06:50.492Z,1012.60
2022-08-17T08:07:50.767Z,1012.56
2022-08-17T08:08:50.821Z,1012.60
2022-08-17T08:09:51.019Z,1012.62
2022-08-17T08:10:51.176Z,1012.57
2022-08-17T08:11:51.311Z,1012.54
2022-08-17T08:12:53.949Z,1012.55
2022-08-17T08:13:51.733Z,1012.53
2022-08-17T08:14:51.863Z,1012.55
2022-08-17T08:15:53.755Z,1012.56
2022-08-17T08:16:52.224Z,1012.57
2022-08-17T08:17:52.747Z,1012.57
2022-08-17T08:18:55.392Z,1012.59
2022-08-17T08:19:52.831Z,1012.63
2022-08-17T08:20:54.005Z,1012.62
2022-08-17T08:21:53.116Z,1012.59
2022-08-17T08:22:53.365Z,1012.60
2022-08-17T08:23:53.474Z,1012.62
2022-08-17T08:24:53.665Z,1012.56
2022-08-17T08:25:53.892Z,1012.58
2022-08-17T08:26:53.996Z,1012.49
2022-08-17T08:27:54.168Z,1012.53
2022-08-17T08:28:54.479Z,1012.51
2022-08-17T08:29:54.530Z,1012.54
2022-08-17T08:30:54.706Z,1012.52
2022-08-17T08:31:54.877Z,1012.46
2022-08-17T08:32:55.331Z,1012.50
2022-08-17T08:33:55.257Z,1012.51
2022-08-17T08:35:01.792Z,1012.49
2022-08-17T08:35:56.618Z,1012.49
2022-08-17T08:37:16.028Z,1012.52
2022-08-17T08:37:57.070Z,1012.51
2022-08-17T08:38:56.199Z,1012.48
2022-08-17T08:39:56.400Z,1012.47
2022-08-17T08:40:56.600Z,1012.49
2022-08-17T08:41:56.680Z,1012.47
2022-08-17T08:42:56.865Z,1012.49
2022-08-17T08:43:57.136Z,1012.48
2022-08-17T08:45:00.064Z,1012.50
2022-08-17T08:45:58.425Z,1012.51
2022-08-17T08:46:57.638Z,1012.47
2022-08-17T08:47:57.815Z,1012.47
2022-08-17T08:49:00.843Z,1012.47
2022-08-17T08:50:05.971Z,1012.51
2022-08-17T08:50:59.327Z,1012.45
2022-08-17T08:51:58.450Z,1012.46
2022-08-17T08:52:58.646Z,1012.49
2022-08-17T08:53:58.877Z,1012.51
2022-08-17T08:54:58.963Z,1012.51
2022-08-17T08:55:59.148Z,1012.51
2022-08-17T08:57:23.095Z,1012.47
2022-08-17T08:58:00.483Z,1012.51
2022-08-17T08:58:59.684Z,1012.51
2022-08-17T08:59:59.954Z,1012.51
2022-08-17T09:01:00.107Z,1012.51
2022-08-17T09:02:00.227Z,1012.51
2022-08-17T09:03:00.502Z,1012.52
2022-08-17T09:04:19.500Z,1012.52
2022-08-17T09:05:16.761Z,1012.49
2022-08-17T09:06:01.976Z,1012.52
2022-08-17T09:07:01.143Z,1012.48
2022-08-17T09:08:01.316Z,1012.45
2022-08-17T09:09:01.595Z,1012.45
2022-08-17T09:10:01.718Z,1012.43
2022-08-17T09:11:01.848Z,1012.43
2022-08-17T09:12:03.827Z,1012.38
2022-08-17T09:13:09.534Z,1012.42
2022-08-17T09:14:03.387Z,1012.36
2022-08-17T09:15:02.567Z,1012.40
2022-08-17T09:16:02.823Z,1012.33
2022-08-17T09:17:02.929Z,1012.34
2022-08-17T09:18:59.243Z,1012.35
2022-08-17T09:19:05.068Z,1012.34
2022-08-17T09:20:03.478Z,1012.34
2022-08-17T09:21:03.744Z,1012.38
2022-08-17T09:22:03.819Z,1012.36
2022-08-17T09:23:04.038Z,1012.40
2022-08-17T09:24:04.213Z,1012.41
2022-08-17T09:25:04.351Z,1012.37
2022-08-17T09:26:04.520Z,1012.40
2022-08-17T09:27:04.788Z,1012.38
2022-08-17T09:28:04.906Z,1012.37
2022-08-17T09:29:05.051Z,1012.40
2022-08-17T09:30:05.283Z,1012.36
2022-08-17T09:31:05.449Z,1012.35
2022-08-17T09:32:05.580Z,1012.31
2022-08-17T09:33:05.792Z,1012.28
2022-08-17T09:34:05.941Z,1012.37
2022-08-17T09:35:06.112Z,1012.36
2022-08-17T09:36:06.292Z,1012.41
2022-08-17T09:37:06.503Z,1012.51
2022-08-17T09:38:06.646Z,1012.48
2022-08-17T09:39:06.823Z,1012.56
2022-08-17T09:40:07.097Z,1012.60
2022-08-17T09:41:07.191Z,1012.55
2022-08-17T09:42:07.384Z,1012.59
2022-08-17T09:43:07.630Z,1012.53
2022-08-17T09:44:22.746Z,1012.49
2022-08-17T09:45:08.886Z,1012.51
2022-08-17T09:46:08.092Z,1012.45
2022-08-17T09:47:08.290Z,1012.45
2022-08-17T09:48:08.466Z,1012.47
2022-08-17T09:49:08.647Z,1012.52
2022-08-17T09:50:08.893Z,1012.53
2022-08-17T09:51:08.997Z,1012.50
2022-08-17T09:52:09.167Z,1012.49
2022-08-17T09:53:09.454Z,1012.49
2022-08-17T09:54:37.488Z,1012.42
2022-08-17T09:55:10.718Z,1012.39
2022-08-17T09:56:09.963Z,1012.35
2022-08-17T09:57:29.258Z,1012.35
2022-08-17T09:58:11.300Z,1012.33
2022-08-17T09:59:10.542Z,1012.35
2022-08-17T10:00:10.643Z,1012.35
2022-08-17T10:01:10.858Z,1012.36
2022-08-17T10:02:13.273Z,1012.37
2022-08-17T10:03:11.218Z,1012.32
2022-08-17T10:04:11.371Z,1012.30
2022-08-17T10:05:11.544Z,1012.29
2022-08-17T10:06:11.721Z,1012.26
2022-08-17T10:07:11.923Z,1012.31
2022-08-17T10:08:12.064Z,1012.26
2022-08-17T10:09:12.330Z,1012.22
2022-08-17T10:10:14.305Z,1012.21
2022-08-17T10:11:12.600Z,1012.26
2022-08-17T10:12:12.833Z,1012.29
2022-08-17T10:13:13.001Z,1012.27
2022-08-17T10:14:36.972Z,1012.32
2022-08-17T10:15:14.660Z,1012.33
2022-08-17T10:16:13.525Z,1012.29
2022-08-17T10:17:13.670Z,1012.29
2022-08-17T10:18:13.844Z,1012.31
2022-08-17T10:19:14.102Z,1012.28
2022-08-17T10:20:14.194Z,1012.29
2022-08-17T10:21:14.385Z,1012.36
2022-08-17T10:22:34.974Z,1012.34
2022-08-17T10:23:15.743Z,1012.41
2022-08-17T10:24:14.915Z,1012.48
2022-08-17T10:25:23.894Z,1012.46
2022-08-17T10:26:16.268Z,1012.32
2022-08-17T10:27:15.476Z,1012.29
2022-08-17T10:28:20.172Z,1012.28
2022-08-17T10:29:15.786Z,1012.26
2022-08-17T10:30:15.948Z,1012.28
2022-08-17T10:31:34.367Z,1012.26
2022-08-17T10:32:17.315Z,1012.30
2022-08-17T10:33:16.444Z,1012.26
2022-08-17T10:34:16.696Z,1012.25
2022-08-17T10:35:16.834Z,1012.25
2022-08-17T10:36:16.975Z,1012.27
2022-08-17T10:37:17.223Z,1012.31
2022-08-17T10:38:17.359Z,1012.30
2022-08-17T10:39:17.498Z,1012.30
2022-08-17T10:40:17.723Z,1012.33
2022-08-17T10:41:17.898Z,1012.33
2022-08-17T10:42:32.172Z,1012.36
2022-08-17T10:43:19.219Z,1012.34
2022-08-17T10:44:38.414Z,1012.35
2022-08-17T10:45:19.558Z,1012.32
2022-08-17T10:46:31.388Z,1012.31
2022-08-17T10:47:20.003Z,1012.29
2022-08-17T10:48:19.088Z,1012.30
2022-08-17T10:49:19.266Z,1012.31
2022-08-17T10:50:19.486Z,1012.32
2022-08-17T10:51:19.593Z,1012.34
2022-08-17T10:52:19.789Z,1012.30
2022-08-17T10:53:20.087Z,1012.24
2022-08-17T10:54:20.118Z,1012.27
2022-08-17T10:55:20.262Z,1012.22
2022-08-17T10:56:20.492Z,1012.21
2022-08-17T10:57:20.669Z,1012.19
2022-08-17T10:58:20.783Z,1012.22
2022-08-17T10:59:20.980Z,1012.19
2022-08-17T11:00:24.273Z,1012.18
2022-08-17T11:01:22.355Z,1012.20
2022-08-17T11:02:21.511Z,1012.22
2022-08-17T11:03:21.723Z,1012.15
2022-08-17T11:04:21.834Z,1012.18
2022-08-17T11:05:21.974Z,1012.15
2022-08-17T11:06:22.238Z,1012.19
2022-08-17T11:07:22.363Z,1012.17
2022-08-17T11:08:22.505Z,1012.14
2022-08-17T11:09:22.689Z,1012.12
2022-08-17T11:10:22.884Z,1012.19
2022-08-17T11:11:23.037Z,1012.18
2022-08-17T11:12:23.322Z,1012.18
2022-08-17T11:13:23.409Z,1012.16
2022-08-17T11:14:23.593Z,1012.09
2022-08-17T11:15:23.801Z,1012.12
2022-08-17T11:16:23.978Z,1012.12
2022-08-17T11:17:24.136Z,1012.04
2022-08-17T11:18:24.315Z,1012.05
2022-08-17T11:19:24.500Z,1012.10
2022-08-17T11:20:24.627Z,1012.13
2022-08-17T11:21:24.787Z,1012.10
2022-08-17T11:22:27.793Z,1012.14
2022-08-17T11:23:26.128Z,1012.11
2022-08-17T11:24:25.309Z,1012.14
2022-08-17T11:25:25.551Z,1012.06
2022-08-17T11:26:25.658Z,1012.13
2022-08-17T11:27:25.829Z,1012.13
2022-08-17T11:28:26.070Z,1012.05
2022-08-17T11:29:26.152Z,1012.11
2022-08-17T11:30:26.644Z,1012.08
2022-08-17T11:31:37.988Z,1012.06
2022-08-17T11:32:27.706Z,1012.07
2022-08-17T11:33:26.840Z,1012.07
2022-08-17T11:34:27.070Z,1012.03
2022-08-17T11:35:27.212Z,1012.07
2022-08-17T11:36:27.377Z,1012.06
2022-08-17T11:37:27.583Z,1012.10
2022-08-17T11:38:28.550Z,1012.11
2022-08-17T11:39:27.932Z,1012.09
2022-08-17T11:40:28.062Z,1012.13
2022-08-17T11:41:28.242Z,1012.16
2022-08-17T11:42:28.452Z,1012.10
2022-08-17T11:43:28.591Z,1012.11
2022-08-17T11:44:28.852Z,1012.10
2022-08-17T11:45:32.242Z,1012.07
2022-08-17T11:46:29.134Z,1012.12
2022-08-17T11:47:29.404Z,1012.07
2022-08-17T11:48:29.964Z,1012.03
2022-08-17T11:49:29.687Z,1012.06
2022-08-17T11:50:29.897Z,1012.03
2022-08-17T11:51:30.085Z,1012.04
2022-08-17T11:52:30.225Z,1012.03
2022-08-17T11:53:30.376Z,1012.00
2022-08-17T11:54:33.612Z,1012.04
2022-08-17T11:55:43.013Z,1012.06
2022-08-17T11:56:31.936Z,1011.99
2022-08-17T11:57:31.209Z,1011.98
2022-08-17T11:58:31.265Z,1011.98
2022-08-17T11:59:31.440Z,1011.99
2022-08-17T12:00:31.669Z,1011.98
2022-08-17T12:01:31.789Z,1011.98
2022-08-17T12:02:32.231Z,1012.00
2022-08-17T12:03:32.300Z,1011.96
2022-08-17T12:04:32.413Z,1011.97
2022-08-17T12:05:32.485Z,1011.99
2022-08-17T12:06:32.718Z,1012.02
2022-08-17T12:07:32.898Z,1012.05